sensor_id;sensor_type;location;lat;lon;timestamp;temperature;humidity
70851;DHT22;58475;49.662;9.636;2023-05-29T00:01:20;12.29;80.02
70851;DHT22;58475;49.662;9.636;2023-05-29T00:03:46;12.35;79.72
70851;DHT22;58475;49.662;9.636;2023-05-29T00:06:12;12.21;79.14
70851;DHT22;58475;49.662;9.636;2023-05-29T00:08:38;12.04;79.96
70851;DHT22;58475;49.662;9.636;2023-05-29T00:11:04;11.81;81.73
70851;DHT22;58475;49.662;9.636;2023-05-29T00:13:30;11.77;82.01
70851;DHT22;58475;49.662;9.636;2023-05-29T00:15:55;11.69;82.03
70851;DHT22;58475;49.662;9.636;2023-05-29T00:18:21;11.94;81.39
70851;DHT22;58475;49.662;9.636;2023-05-29T00:20:47;11.82;80.94
70851;DHT22;58475;49.662;9.636;2023-05-29T00:23:12;11.29;82.89
70851;DHT22;58475;49.662;9.636;2023-05-29T00:25:37;11.02;83.86
70851;DHT22;58475;49.662;9.636;2023-05-29T00:28:06;11.08;83.99
70851;DHT22;58475;49.662;9.636;2023-05-29T00:30:32;11.03;83.87
70851;DHT22;58475;49.662;9.636;2023-05-29T00:32:57;11.51;82.35
70851;DHT22;58475;49.662;9.636;2023-05-29T00:35:23;11.50;82.40
70851;DHT22;58475;49.662;9.636;2023-05-29T00:37:48;11.03;82.88
70851;DHT22;58475;49.662;9.636;2023-05-29T00:40:14;11.01;83.56
70851;DHT22;58475;49.662;9.636;2023-05-29T00:42:39;10.83;84.18
70851;DHT22;58475;49.662;9.636;2023-05-29T00:45:05;10.69;84.52
70851;DHT22;58475;49.662;9.636;2023-05-29T00:47:31;10.60;85.33
70851;DHT22;58475;49.662;9.636;2023-05-29T00:49:57;10.54;85.49
70851;DHT22;58475;49.662;9.636;2023-05-29T00:52:23;10.78;85.28
70851;DHT22;58475;49.662;9.636;2023-05-29T00:54:50;10.69;84.95
70851;DHT22;58475;49.662;9.636;2023-05-29T00:57:16;10.62;84.63
70851;DHT22;58475;49.662;9.636;2023-05-29T00:59:42;10.61;85.29
70851;DHT22;58475;49.662;9.636;2023-05-29T01:02:08;10.55;85.40
70851;DHT22;58475;49.662;9.636;2023-05-29T01:04:34;10.61;85.00
70851;DHT22;58475;49.662;9.636;2023-05-29T01:07:00;10.75;84.65
70851;DHT22;58475;49.662;9.636;2023-05-29T01:09:28;10.72;84.84
70851;DHT22;58475;49.662;9.636;2023-05-29T01:12:16;10.95;83.54
70851;DHT22;58475;49.662;9.636;2023-05-29T01:17:51;10.50;84.68
70851;DHT22;58475;49.662;9.636;2023-05-29T01:20:38;10.74;84.17
70851;DHT22;58475;49.662;9.636;2023-05-29T01:23:19;10.54;84.90
70851;DHT22;58475;49.662;9.636;2023-05-29T01:28:35;10.38;84.92
70851;DHT22;58475;49.662;9.636;2023-05-29T01:31:03;10.40;85.15
70851;DHT22;58475;49.662;9.636;2023-05-29T01:33:29;10.60;84.79
70851;DHT22;58475;49.662;9.636;2023-05-29T01:35:55;10.40;84.18
70851;DHT22;58475;49.662;9.636;2023-05-29T01:38:21;10.23;85.31
70851;DHT22;58475;49.662;9.636;2023-05-29T01:40:49;10.31;85.03
70851;DHT22;58475;49.662;9.636;2023-05-29T01:43:15;10.64;83.86
70851;DHT22;58475;49.662;9.636;2023-05-29T01:45:41;10.47;84.25
70851;DHT22;58475;49.662;9.636;2023-05-29T01:48:06;10.34;84.45
70851;DHT22;58475;49.662;9.636;2023-05-29T01:50:34;10.27;84.15
70851;DHT22;58475;49.662;9.636;2023-05-29T01:52:59;10.13;84.60
70851;DHT22;58475;49.662;9.636;2023-05-29T01:55:25;10.07;84.93
70851;DHT22;58475;49.662;9.636;2023-05-29T01:57:51;10.00;85.16
70851;DHT22;58475;49.662;9.636;2023-05-29T02:00:17;10.07;84.82
70851;DHT22;58475;49.662;9.636;2023-05-29T02:02:46;9.94;85.16
70851;DHT22;58475;49.662;9.636;2023-05-29T02:05:11;9.87;85.83
70851;DHT22;58475;49.662;9.636;2023-05-29T02:07:37;9.81;86.30
70851;DHT22;58475;49.662;9.636;2023-05-29T02:10:04;9.76;86.33
70851;DHT22;58475;49.662;9.636;2023-05-29T02:12:29;9.79;86.52
70851;DHT22;58475;49.662;9.636;2023-05-29T02:14:55;9.73;86.47
70851;DHT22;58475;49.662;9.636;2023-05-29T02:17:21;9.83;86.95
70851;DHT22;58475;49.662;9.636;2023-05-29T02:19:46;9.66;86.76
70851;DHT22;58475;49.662;9.636;2023-05-29T02:22:12;9.72;86.18
70851;DHT22;58475;49.662;9.636;2023-05-29T02:24:37;9.83;86.16
70851;DHT22;58475;49.662;9.636;2023-05-29T02:27:02;9.73;86.24
70851;DHT22;58475;49.662;9.636;2023-05-29T02:29:28;9.69;85.98
70851;DHT22;58475;49.662;9.636;2023-05-29T02:31:53;9.56;85.77
70851;DHT22;58475;49.662;9.636;2023-05-29T02:34:19;9.46;86.82
70851;DHT22;58475;49.662;9.636;2023-05-29T02:36:48;9.01;88.24
70851;DHT22;58475;49.662;9.636;2023-05-29T02:39:13;9.03;88.39
70851;DHT22;58475;49.662;9.636;2023-05-29T02:41:39;9.01;88.51
70851;DHT22;58475;49.662;9.636;2023-05-29T02:44:04;9.14;87.54
70851;DHT22;58475;49.662;9.636;2023-05-29T02:46:29;9.03;88.23
70851;DHT22;58475;49.662;9.636;2023-05-29T02:48:55;9.07;87.93
70851;DHT22;58475;49.662;9.636;2023-05-29T02:51:21;9.10;88.07
70851;DHT22;58475;49.662;9.636;2023-05-29T02:53:46;9.03;88.00
70851;DHT22;58475;49.662;9.636;2023-05-29T02:56:14;9.25;87.86
70851;DHT22;58475;49.662;9.636;2023-05-29T02:58:41;9.13;87.17
70851;DHT22;58475;49.662;9.636;2023-05-29T03:01:06;9.01;87.02
70851;DHT22;58475;49.662;9.636;2023-05-29T03:03:32;9.13;87.44
70851;DHT22;58475;49.662;9.636;2023-05-29T03:05:58;9.00;87.23
70851;DHT22;58475;49.662;9.636;2023-05-29T03:08:24;8.88;87.89
70851;DHT22;58475;49.662;9.636;2023-05-29T03:10:50;8.83;87.72
70851;DHT22;58475;49.662;9.636;2023-05-29T03:13:17;8.84;87.32
70851;DHT22;58475;49.662;9.636;2023-05-29T03:15:51;8.73;88.24
70851;DHT22;58475;49.662;9.636;2023-05-29T03:18:16;8.77;88.01
70851;DHT22;58475;49.662;9.636;2023-05-29T03:20:42;8.70;87.77
70851;DHT22;58475;49.662;9.636;2023-05-29T03:23:07;8.64;88.20
70851;DHT22;58475;49.662;9.636;2023-05-29T03:25:34;8.57;88.43
70851;DHT22;58475;49.662;9.636;2023-05-29T03:28:00;8.62;88.86
70851;DHT22;58475;49.662;9.636;2023-05-29T03:30:25;8.66;88.70
70851;DHT22;58475;49.662;9.636;2023-05-29T03:32:53;8.59;88.50
70851;DHT22;58475;49.662;9.636;2023-05-29T03:35:24;8.72;88.47
70851;DHT22;58475;49.662;9.636;2023-05-29T03:37:50;8.64;88.38
70851;DHT22;58475;49.662;9.636;2023-05-29T03:40:15;8.56;88.27
70851;DHT22;58475;49.662;9.636;2023-05-29T03:42:41;8.62;88.58
70851;DHT22;58475;49.662;9.636;2023-05-29T03:45:07;8.63;87.82
70851;DHT22;58475;49.662;9.636;2023-05-29T03:47:35;8.50;88.74
70851;DHT22;58475;49.662;9.636;2023-05-29T03:50:01;8.52;88.48
70851;DHT22;58475;49.662;9.636;2023-05-29T03:52:31;8.57;88.62
70851;DHT22;58475;49.662;9.636;2023-05-29T03:54:56;8.67;88.16
70851;DHT22;58475;49.662;9.636;2023-05-29T03:57:21;8.64;88.00
70851;DHT22;58475;49.662;9.636;2023-05-29T03:59:48;8.70;87.98
70851;DHT22;58475;49.662;9.636;2023-05-29T04:02:13;8.72;88.01
70851;DHT22;58475;49.662;9.636;2023-05-29T04:04:40;8.70;89.12
70851;DHT22;58475;49.662;9.636;2023-05-29T04:07:05;9.08;88.29
70851;DHT22;58475;49.662;9.636;2023-05-29T04:09:32;9.13;87.30
70851;DHT22;58475;49.662;9.636;2023-05-29T04:11:59;9.05;87.67
70851;DHT22;58475;49.662;9.636;2023-05-29T04:14:27;9.10;87.51
70851;DHT22;58475;49.662;9.636;2023-05-29T04:16:53;9.23;87.16
70851;DHT22;58475;49.662;9.636;2023-05-29T04:19:18;9.41;86.53
70851;DHT22;58475;49.662;9.636;2023-05-29T04:21:44;9.61;86.47
70851;DHT22;58475;49.662;9.636;2023-05-29T04:24:09;9.87;85.28
70851;DHT22;58475;49.662;9.636;2023-05-29T04:26:36;9.83;86.15
70851;DHT22;58475;49.662;9.636;2023-05-29T04:29:06;9.93;85.56
70851;DHT22;58475;49.662;9.636;2023-05-29T04:31:32;9.93;85.55
70851;DHT22;58475;49.662;9.636;2023-05-29T04:33:58;9.93;84.90
70851;DHT22;58475;49.662;9.636;2023-05-29T04:36:26;10.04;84.56
70851;DHT22;58475;49.662;9.636;2023-05-29T04:39:01;10.20;84.76
70851;DHT22;58475;49.662;9.636;2023-05-29T04:41:27;10.30;84.02
70851;DHT22;58475;49.662;9.636;2023-05-29T04:43:57;10.60;84.12
70851;DHT22;58475;49.662;9.636;2023-05-29T04:46:26;10.92;83.33
70851;DHT22;58475;49.662;9.636;2023-05-29T04:48:52;11.18;82.74
70851;DHT22;58475;49.662;9.636;2023-05-29T04:51:21;11.19;82.39
70851;DHT22;58475;49.662;9.636;2023-05-29T04:53:49;11.26;82.30
70851;DHT22;58475;49.662;9.636;2023-05-29T04:56:15;11.34;82.41
70851;DHT22;58475;49.662;9.636;2023-05-29T04:58:41;11.42;82.06
70851;DHT22;58475;49.662;9.636;2023-05-29T05:01:07;11.46;82.24
70851;DHT22;58475;49.662;9.636;2023-05-29T05:03:36;11.80;80.94
70851;DHT22;58475;49.662;9.636;2023-05-29T05:06:02;12.11;80.99
70851;DHT22;58475;49.662;9.636;2023-05-29T05:08:28;12.33;80.67
70851;DHT22;58475;49.662;9.636;2023-05-29T05:11:00;12.62;79.41
70851;DHT22;58475;49.662;9.636;2023-05-29T05:13:26;12.56;79.28
70851;DHT22;58475;49.662;9.636;2023-05-29T05:15:52;12.60;78.19
70851;DHT22;58475;49.662;9.636;2023-05-29T05:18:18;12.35;79.29
70851;DHT22;58475;49.662;9.636;2023-05-29T05:20:50;12.72;78.77
70851;DHT22;58475;49.662;9.636;2023-05-29T05:23:16;13.03;77.96
70851;DHT22;58475;49.662;9.636;2023-05-29T05:25:41;13.37;76.92
70851;DHT22;58475;49.662;9.636;2023-05-29T05:28:08;13.27;76.99
70851;DHT22;58475;49.662;9.636;2023-05-29T05:30:34;13.47;77.16
70851;DHT22;58475;49.662;9.636;2023-05-29T05:33:00;13.07;77.67
70851;DHT22;58475;49.662;9.636;2023-05-29T05:35:25;13.04;77.64
70851;DHT22;58475;49.662;9.636;2023-05-29T05:37:51;13.66;76.54
70851;DHT22;58475;49.662;9.636;2023-05-29T05:40:16;14.10;76.46
70851;DHT22;58475;49.662;9.636;2023-05-29T05:42:52;14.47;75.15
70851;DHT22;58475;49.662;9.636;2023-05-29T05:45:23;14.52;75.33
70851;DHT22;58475;49.662;9.636;2023-05-29T05:47:48;14.47;75.27
70851;DHT22;58475;49.662;9.636;2023-05-29T05:50:15;14.78;74.62
70851;DHT22;58475;49.662;9.636;2023-05-29T05:52:41;14.81;75.48
70851;DHT22;58475;49.662;9.636;2023-05-29T05:55:07;14.82;75.16
70851;DHT22;58475;49.662;9.636;2023-05-29T05:57:33;14.87;73.71
70851;DHT22;58475;49.662;9.636;2023-05-29T05:59:59;14.72;73.84
70851;DHT22;58475;49.662;9.636;2023-05-29T06:02:25;14.92;73.88
70851;DHT22;58475;49.662;9.636;2023-05-29T06:04:51;15.51;73.54
70851;DHT22;58475;49.662;9.636;2023-05-29T06:07:17;15.66;72.35
70851;DHT22;58475;49.662;9.636;2023-05-29T06:09:43;16.15;70.92
70851;DHT22;58475;49.662;9.636;2023-05-29T06:12:08;16.72;69.81
70851;DHT22;58475;49.662;9.636;2023-05-29T06:14:38;16.84;69.45
70851;DHT22;58475;49.662;9.636;2023-05-29T06:17:04;16.99;69.97
70851;DHT22;58475;49.662;9.636;2023-05-29T06:19:30;17.21;69.81
70851;DHT22;58475;49.662;9.636;2023-05-29T06:21:59;17.55;69.75
70851;DHT22;58475;49.662;9.636;2023-05-29T06:24:26;17.42;70.78
70851;DHT22;58475;49.662;9.636;2023-05-29T06:26:53;17.71;68.42
70851;DHT22;58475;49.662;9.636;2023-05-29T06:29:20;18.16;66.35
70851;DHT22;58475;49.662;9.636;2023-05-29T06:31:45;18.30;65.69
70851;DHT22;58475;49.662;9.636;2023-05-29T06:34:10;18.47;66.83
70851;DHT22;58475;49.662;9.636;2023-05-29T06:36:37;18.60;66.01
70851;DHT22;58475;49.662;9.636;2023-05-29T06:39:04;18.67;65.14
70851;DHT22;58475;49.662;9.636;2023-05-29T06:41:30;18.84;64.46
70851;DHT22;58475;49.662;9.636;2023-05-29T06:43:56;19.22;63.19
70851;DHT22;58475;49.662;9.636;2023-05-29T06:46:21;19.73;62.48
70851;DHT22;58475;49.662;9.636;2023-05-29T06:48:46;19.87;60.99
70851;DHT22;58475;49.662;9.636;2023-05-29T06:51:12;19.71;61.54
70851;DHT22;58475;49.662;9.636;2023-05-29T06:53:53;20.32;59.46
70851;DHT22;58475;49.662;9.636;2023-05-29T06:56:19;20.22;59.16
70851;DHT22;58475;49.662;9.636;2023-05-29T06:58:45;20.56;58.73
70851;DHT22;58475;49.662;9.636;2023-05-29T07:01:13;20.80;58.56
70851;DHT22;58475;49.662;9.636;2023-05-29T07:03:46;20.59;57.69
70851;DHT22;58475;49.662;9.636;2023-05-29T07:06:13;20.62;58.81
70851;DHT22;58475;49.662;9.636;2023-05-29T07:08:38;20.77;56.93
70851;DHT22;58475;49.662;9.636;2023-05-29T07:11:05;21.20;57.78
70851;DHT22;58475;49.662;9.636;2023-05-29T07:13:30;21.07;58.02
70851;DHT22;58475;49.662;9.636;2023-05-29T07:15:55;21.31;55.85
70851;DHT22;58475;49.662;9.636;2023-05-29T07:18:28;21.52;54.61
70851;DHT22;58475;49.662;9.636;2023-05-29T07:20:55;21.55;54.97
70851;DHT22;58475;49.662;9.636;2023-05-29T07:23:21;21.99;56.09
70851;DHT22;58475;49.662;9.636;2023-05-29T07:25:46;22.26;56.08
70851;DHT22;58475;49.662;9.636;2023-05-29T07:28:11;22.61;52.19
70851;DHT22;58475;49.662;9.636;2023-05-29T07:30:37;22.75;52.27
70851;DHT22;58475;49.662;9.636;2023-05-29T07:33:04;22.35;49.95
70851;DHT22;58475;49.662;9.636;2023-05-29T07:35:30;22.92;51.61
70851;DHT22;58475;49.662;9.636;2023-05-29T07:37:58;22.98;50.18
70851;DHT22;58475;49.662;9.636;2023-05-29T07:40:27;23.29;48.95
70851;DHT22;58475;49.662;9.636;2023-05-29T07:42:58;23.48;50.54
70851;DHT22;58475;49.662;9.636;2023-05-29T07:45:28;23.56;48.86
70851;DHT22;58475;49.662;9.636;2023-05-29T07:47:54;23.90;48.33
70851;DHT22;58475;49.662;9.636;2023-05-29T07:50:20;23.74;47.71
70851;DHT22;58475;49.662;9.636;2023-05-29T07:52:46;24.00;48.57
70851;DHT22;58475;49.662;9.636;2023-05-29T07:55:11;24.06;48.82
70851;DHT22;58475;49.662;9.636;2023-05-29T07:57:38;24.29;48.39
70851;DHT22;58475;49.662;9.636;2023-05-29T08:00:05;24.41;49.82
70851;DHT22;58475;49.662;9.636;2023-05-29T08:02:31;24.24;45.86
70851;DHT22;58475;49.662;9.636;2023-05-29T08:05:20;24.08;46.13
70851;DHT22;58475;49.662;9.636;2023-05-29T08:07:45;24.32;45.45
70851;DHT22;58475;49.662;9.636;2023-05-29T08:10:12;24.32;46.36
70851;DHT22;58475;49.662;9.636;2023-05-29T08:12:37;24.48;45.36
70851;DHT22;58475;49.662;9.636;2023-05-29T08:15:03;25.17;45.70
70851;DHT22;58475;49.662;9.636;2023-05-29T08:17:29;24.71;47.69
70851;DHT22;58475;49.662;9.636;2023-05-29T08:19:55;25.10;44.92
70851;DHT22;58475;49.662;9.636;2023-05-29T08:22:20;24.79;45.99
70851;DHT22;58475;49.662;9.636;2023-05-29T08:24:47;24.59;43.63
70851;DHT22;58475;49.662;9.636;2023-05-29T08:27:12;25.28;45.25
70851;DHT22;58475;49.662;9.636;2023-05-29T08:29:41;24.93;44.09
70851;DHT22;58475;49.662;9.636;2023-05-29T08:32:07;25.23;43.80
70851;DHT22;58475;49.662;9.636;2023-05-29T08:34:32;25.33;42.97
70851;DHT22;58475;49.662;9.636;2023-05-29T08:36:58;25.26;42.98
70851;DHT22;58475;49.662;9.636;2023-05-29T08:39:25;25.80;43.51
70851;DHT22;58475;49.662;9.636;2023-05-29T08:42:00;25.67;42.93
70851;DHT22;58475;49.662;9.636;2023-05-29T08:44:30;25.82;45.32
70851;DHT22;58475;49.662;9.636;2023-05-29T08:46:56;26.08;42.08
70851;DHT22;58475;49.662;9.636;2023-05-29T08:49:22;26.33;41.78
70851;DHT22;58475;49.662;9.636;2023-05-29T08:52:02;26.14;40.67
70851;DHT22;58475;49.662;9.636;2023-05-29T08:54:31;26.18;42.80
70851;DHT22;58475;49.662;9.636;2023-05-29T08:56:58;26.56;40.93
70851;DHT22;58475;49.662;9.636;2023-05-29T08:59:25;26.80;39.54
70851;DHT22;58475;49.662;9.636;2023-05-29T09:01:51;26.31;40.76
70851;DHT22;58475;49.662;9.636;2023-05-29T09:04:16;26.63;40.83
70851;DHT22;58475;49.662;9.636;2023-05-29T09:06:42;26.63;40.65
70851;DHT22;58475;49.662;9.636;2023-05-29T09:09:08;26.80;40.03
70851;DHT22;58475;49.662;9.636;2023-05-29T09:11:35;26.74;40.33
70851;DHT22;58475;49.662;9.636;2023-05-29T09:14:00;27.20;39.67
70851;DHT22;58475;49.662;9.636;2023-05-29T09:16:27;27.39;39.35
70851;DHT22;58475;49.662;9.636;2023-05-29T09:19:04;27.20;37.29
70851;DHT22;58475;49.662;9.636;2023-05-29T09:21:31;27.44;37.59
70851;DHT22;58475;49.662;9.636;2023-05-29T09:24:04;26.39;38.49
70851;DHT22;58475;49.662;9.636;2023-05-29T09:26:31;26.04;37.84
70851;DHT22;58475;49.662;9.636;2023-05-29T09:28:57;26.57;38.07
70851;DHT22;58475;49.662;9.636;2023-05-29T09:31:23;26.97;39.88
70851;DHT22;58475;49.662;9.636;2023-05-29T09:33:49;27.46;39.39
70851;DHT22;58475;49.662;9.636;2023-05-29T09:36:24;27.81;37.22
70851;DHT22;58475;49.662;9.636;2023-05-29T09:38:50;28.16;39.10
70851;DHT22;58475;49.662;9.636;2023-05-29T09:41:23;28.27;37.44
70851;DHT22;58475;49.662;9.636;2023-05-29T09:43:51;28.10;37.19
70851;DHT22;58475;49.662;9.636;2023-05-29T09:46:19;27.15;35.92
70851;DHT22;58475;49.662;9.636;2023-05-29T09:48:45;27.34;38.60
70851;DHT22;58475;49.662;9.636;2023-05-29T09:51:23;26.69;40.17
70851;DHT22;58475;49.662;9.636;2023-05-29T09:53:50;27.41;42.08
70851;DHT22;58475;49.662;9.636;2023-05-29T09:56:17;27.79;37.53
70851;DHT22;58475;49.662;9.636;2023-05-29T09:58:46;28.20;39.70
70851;DHT22;58475;49.662;9.636;2023-05-29T10:01:13;27.90;36.27
70851;DHT22;58475;49.662;9.636;2023-05-29T10:03:41;28.60;37.55
70851;DHT22;58475;49.662;9.636;2023-05-29T10:06:11;28.57;37.64
70851;DHT22;58475;49.662;9.636;2023-05-29T10:08:46;28.18;37.34
70851;DHT22;58475;49.662;9.636;2023-05-29T10:11:18;28.02;37.16
70851;DHT22;58475;49.662;9.636;2023-05-29T10:13:51;28.44;36.79
70851;DHT22;58475;49.662;9.636;2023-05-29T10:16:20;28.69;35.90
70851;DHT22;58475;49.662;9.636;2023-05-29T10:18:55;28.27;36.32
70851;DHT22;58475;49.662;9.636;2023-05-29T10:21:22;28.24;34.35
70851;DHT22;58475;49.662;9.636;2023-05-29T10:23:50;28.83;36.11
70851;DHT22;58475;49.662;9.636;2023-05-29T10:26:19;28.69;37.77
70851;DHT22;58475;49.662;9.636;2023-05-29T10:28:53;28.28;37.22
70851;DHT22;58475;49.662;9.636;2023-05-29T10:31:27;27.96;36.78
70851;DHT22;58475;49.662;9.636;2023-05-29T10:34:23;28.60;36.82
70851;DHT22;58475;49.662;9.636;2023-05-29T10:37:00;28.64;34.07
70851;DHT22;58475;49.662;9.636;2023-05-29T10:39:27;28.69;34.16
70851;DHT22;58475;49.662;9.636;2023-05-29T10:41:53;28.67;32.84
70851;DHT22;58475;49.662;9.636;2023-05-29T10:47:03;28.21;32.98
70851;DHT22;58475;49.662;9.636;2023-05-29T10:49:29;28.28;33.86
70851;DHT22;58475;49.662;9.636;2023-05-29T10:51:57;28.58;35.44
70851;DHT22;58475;49.662;9.636;2023-05-29T10:54:26;27.97;34.22
70851;DHT22;58475;49.662;9.636;2023-05-29T10:56:56;28.95;36.38
70851;DHT22;58475;49.662;9.636;2023-05-29T10:59:22;28.25;36.57
70851;DHT22;58475;49.662;9.636;2023-05-29T11:01:53;28.62;34.79
70851;DHT22;58475;49.662;9.636;2023-05-29T11:06:50;28.98;35.06
70851;DHT22;58475;49.662;9.636;2023-05-29T11:15:09;29.39;34.08
70851;DHT22;58475;49.662;9.636;2023-05-29T11:24:26;29.11;35.88
70851;DHT22;58475;49.662;9.636;2023-05-29T11:26:55;29.15;35.96
70851;DHT22;58475;49.662;9.636;2023-05-29T11:29:24;28.83;33.90
70851;DHT22;58475;49.662;9.636;2023-05-29T11:31:58;28.98;36.11
70851;DHT22;58475;49.662;9.636;2023-05-29T11:34:25;29.08;35.35
70851;DHT22;58475;49.662;9.636;2023-05-29T11:36:53;29.37;34.54
70851;DHT22;58475;49.662;9.636;2023-05-29T11:39:19;29.59;36.13
70851;DHT22;58475;49.662;9.636;2023-05-29T11:41:50;28.95;34.26
70851;DHT22;58475;49.662;9.636;2023-05-29T11:44:16;29.08;37.18
70851;DHT22;58475;49.662;9.636;2023-05-29T11:46:43;28.91;34.23
70851;DHT22;58475;49.662;9.636;2023-05-29T11:49:10;28.98;36.00
70851;DHT22;58475;49.662;9.636;2023-05-29T11:51:36;29.05;35.63
70851;DHT22;58475;49.662;9.636;2023-05-29T11:54:02;29.37;33.08
70851;DHT22;58475;49.662;9.636;2023-05-29T11:56:29;29.51;34.38
70851;DHT22;58475;49.662;9.636;2023-05-29T11:58:58;29.09;34.29
70851;DHT22;58475;49.662;9.636;2023-05-29T12:01:26;28.87;34.42
70851;DHT22;58475;49.662;9.636;2023-05-29T12:03:53;29.40;36.85
70851;DHT22;58475;49.662;9.636;2023-05-29T12:06:35;28.45;34.42
70851;DHT22;58475;49.662;9.636;2023-05-29T12:09:03;29.30;34.55
70851;DHT22;58475;49.662;9.636;2023-05-29T12:11:30;29.34;35.07
70851;DHT22;58475;49.662;9.636;2023-05-29T12:14:05;29.77;35.32
70851;DHT22;58475;49.662;9.636;2023-05-29T12:16:33;28.47;34.26
70851;DHT22;58475;49.662;9.636;2023-05-29T12:18:59;29.23;35.49
70851;DHT22;58475;49.662;9.636;2023-05-29T12:21:26;29.54;33.83
70851;DHT22;58475;49.662;9.636;2023-05-29T12:23:53;28.30;35.32
70851;DHT22;58475;49.662;9.636;2023-05-29T12:26:22;29.42;35.02
70851;DHT22;58475;49.662;9.636;2023-05-29T12:28:48;28.21;33.54
70851;DHT22;58475;49.662;9.636;2023-05-29T12:31:26;29.16;35.19
70851;DHT22;58475;49.662;9.636;2023-05-29T12:33:52;29.43;36.06
70851;DHT22;58475;49.662;9.636;2023-05-29T12:36:18;29.42;36.31
70851;DHT22;58475;49.662;9.636;2023-05-29T12:38:51;30.00;35.29
70851;DHT22;58475;49.662;9.636;2023-05-29T12:43:48;29.29;35.99
70851;DHT22;58475;49.662;9.636;2023-05-29T12:46:13;28.31;36.40
70851;DHT22;58475;49.662;9.636;2023-05-29T12:48:38;28.99;35.93
70851;DHT22;58475;49.662;9.636;2023-05-29T12:51:07;29.51;35.99
70851;DHT22;58475;49.662;9.636;2023-05-29T12:53:33;29.51;36.95
70851;DHT22;58475;49.662;9.636;2023-05-29T12:55:58;29.60;37.91
70851;DHT22;58475;49.662;9.636;2023-05-29T12:58:24;29.56;34.37
70851;DHT22;58475;49.662;9.636;2023-05-29T13:00:52;29.46;34.84
70851;DHT22;58475;49.662;9.636;2023-05-29T13:03:20;29.23;35.52
70851;DHT22;58475;49.662;9.636;2023-05-29T13:05:49;29.15;35.71
70851;DHT22;58475;49.662;9.636;2023-05-29T13:08:15;28.92;36.79
70851;DHT22;58475;49.662;9.636;2023-05-29T13:10:40;29.01;36.57
70851;DHT22;58475;49.662;9.636;2023-05-29T13:13:06;28.75;35.50
70851;DHT22;58475;49.662;9.636;2023-05-29T13:15:31;29.30;38.66
70851;DHT22;58475;49.662;9.636;2023-05-29T13:17:58;29.90;36.01
70851;DHT22;58475;49.662;9.636;2023-05-29T13:20:23;29.09;34.05
70851;DHT22;58475;49.662;9.636;2023-05-29T13:22:48;29.57;35.35
70851;DHT22;58475;49.662;9.636;2023-05-29T13:25:16;29.40;34.43
70851;DHT22;58475;49.662;9.636;2023-05-29T13:27:45;29.84;34.79
70851;DHT22;58475;49.662;9.636;2023-05-29T13:30:11;29.57;35.62
70851;DHT22;58475;49.662;9.636;2023-05-29T13:32:38;29.67;33.29
70851;DHT22;58475;49.662;9.636;2023-05-29T13:35:03;29.32;33.23
70851;DHT22;58475;49.662;9.636;2023-05-29T13:37:29;29.51;32.75
70851;DHT22;58475;49.662;9.636;2023-05-29T13:39:54;29.69;34.42
70851;DHT22;58475;49.662;9.636;2023-05-29T13:42:20;29.74;32.80
70851;DHT22;58475;49.662;9.636;2023-05-29T13:44:46;29.73;33.13
70851;DHT22;58475;49.662;9.636;2023-05-29T13:47:12;29.54;34.12
70851;DHT22;58475;49.662;9.636;2023-05-29T13:49:38;29.53;33.54
70851;DHT22;58475;49.662;9.636;2023-05-29T13:52:04;29.32;34.14
70851;DHT22;58475;49.662;9.636;2023-05-29T13:54:29;29.76;33.95
70851;DHT22;58475;49.662;9.636;2023-05-29T13:56:56;29.12;32.96
70851;DHT22;58475;49.662;9.636;2023-05-29T13:59:26;30.00;34.28
70851;DHT22;58475;49.662;9.636;2023-05-29T14:01:51;29.96;33.83
70851;DHT22;58475;49.662;9.636;2023-05-29T14:04:16;30.21;32.66
70851;DHT22;58475;49.662;9.636;2023-05-29T14:06:42;30.21;32.90
70851;DHT22;58475;49.662;9.636;2023-05-29T14:09:07;29.78;35.27
70851;DHT22;58475;49.662;9.636;2023-05-29T14:11:39;29.91;33.73
70851;DHT22;58475;49.662;9.636;2023-05-29T14:14:05;29.70;32.42
70851;DHT22;58475;49.662;9.636;2023-05-29T14:16:31;29.40;32.78
70851;DHT22;58475;49.662;9.636;2023-05-29T14:18:57;29.71;34.61
70851;DHT22;58475;49.662;9.636;2023-05-29T14:21:23;29.51;34.42
70851;DHT22;58475;49.662;9.636;2023-05-29T14:23:48;29.54;34.52
70851;DHT22;58475;49.662;9.636;2023-05-29T14:26:14;29.49;32.94
70851;DHT22;58475;49.662;9.636;2023-05-29T14:28:39;29.73;34.95
70851;DHT22;58475;49.662;9.636;2023-05-29T14:31:05;29.90;34.05
70851;DHT22;58475;49.662;9.636;2023-05-29T14:33:31;29.42;33.63
70851;DHT22;58475;49.662;9.636;2023-05-29T14:35:57;29.39;33.42
70851;DHT22;58475;49.662;9.636;2023-05-29T14:38:23;29.60;35.07
70851;DHT22;58475;49.662;9.636;2023-05-29T14:40:48;29.20;33.20
70851;DHT22;58475;49.662;9.636;2023-05-29T14:43:13;28.90;33.46
70851;DHT22;58475;49.662;9.636;2023-05-29T14:45:39;28.82;33.71
70851;DHT22;58475;49.662;9.636;2023-05-29T14:48:04;28.18;35.23
70851;DHT22;58475;49.662;9.636;2023-05-29T14:50:30;28.48;34.91
70851;DHT22;58475;49.662;9.636;2023-05-29T14:52:55;28.95;33.57
70851;DHT22;58475;49.662;9.636;2023-05-29T14:55:20;29.27;34.12
70851;DHT22;58475;49.662;9.636;2023-05-29T14:57:46;28.71;33.12
70851;DHT22;58475;49.662;9.636;2023-05-29T15:00:11;29.11;34.10
70851;DHT22;58475;49.662;9.636;2023-05-29T15:02:37;28.85;32.92
70851;DHT22;58475;49.662;9.636;2023-05-29T15:05:05;29.18;34.04
70851;DHT22;58475;49.662;9.636;2023-05-29T15:07:30;29.16;33.80
70851;DHT22;58475;49.662;9.636;2023-05-29T15:09:56;29.13;34.96
70851;DHT22;58475;49.662;9.636;2023-05-29T15:12:21;28.90;34.32
70851;DHT22;58475;49.662;9.636;2023-05-29T15:14:46;28.92;33.30
70851;DHT22;58475;49.662;9.636;2023-05-29T15:17:12;28.81;33.70
70851;DHT22;58475;49.662;9.636;2023-05-29T15:19:37;28.16;34.04
70851;DHT22;58475;49.662;9.636;2023-05-29T15:22:03;28.02;33.72
70851;DHT22;58475;49.662;9.636;2023-05-29T15:24:28;27.52;34.94
70851;DHT22;58475;49.662;9.636;2023-05-29T15:26:53;27.45;34.12
70851;DHT22;58475;49.662;9.636;2023-05-29T15:29:19;28.39;37.56
70851;DHT22;58475;49.662;9.636;2023-05-29T15:31:45;28.30;34.90
70851;DHT22;58475;49.662;9.636;2023-05-29T15:34:11;28.10;33.50
70851;DHT22;58475;49.662;9.636;2023-05-29T15:36:37;28.51;34.14
70851;DHT22;58475;49.662;9.636;2023-05-29T15:39:05;28.43;34.44
70851;DHT22;58475;49.662;9.636;2023-05-29T15:41:31;28.47;34.08
70851;DHT22;58475;49.662;9.636;2023-05-29T15:43:56;28.21;33.77
70851;DHT22;58475;49.662;9.636;2023-05-29T15:46:25;27.97;35.18
70851;DHT22;58475;49.662;9.636;2023-05-29T15:48:51;27.99;35.44
70851;DHT22;58475;49.662;9.636;2023-05-29T15:51:16;27.48;34.38
70851;DHT22;58475;49.662;9.636;2023-05-29T15:53:41;27.81;35.54
70851;DHT22;58475;49.662;9.636;2023-05-29T15:56:07;27.81;34.42
70851;DHT22;58475;49.662;9.636;2023-05-29T15:58:32;28.16;35.67